Salt Lake City, Utah
Traffic Map
Current Weather Conditions
Salt Lake City, Utah
Broken Clouds
Broken Clouds

Feels Like: 5°
Wind Chill: Ceiling: 10000
Heat Index: Visibility: 9mi
Dew Point: Wind: 5mph
Humidity: 76% Direction: 180° (S)
Pressure: 30.16in Gusts: 0mph
Raw Report DataKSLC 280553Z 18004KT 9SM SCT065 BKN100 06/02 A3016 RMK AO2 SLP208 T00610022 10117 20044 50008
Traffic Incident Summary
Active as of:
Severity:
Category:
InformationThere was an issue retrieving the traffic information for this location. Please try a different location or try again shortly.
Advertisements
Track Severe Weather on mobile